sensor_id;sensor_type;location;lat;lon;timestamp;pressure;altitude;pressure_sealevel;temperature;humidity
5996;BME280;3026;53.612;7.278;2022-08-19T00:02:10;101306.66;;;15.51;100.00
5996;BME280;3026;53.612;7.278;2022-08-19T00:04:39;101295.41;;;15.46;100.00
5996;BME280;3026;53.612;7.278;2022-08-19T00:07:06;101298.13;;;15.46;100.00
5996;BME280;3026;53.612;7.278;2022-08-19T00:09:33;101291.34;;;15.42;100.00
5996;BME280;3026;53.612;7.278;2022-08-19T00:12:01;101284.50;;;15.38;100.00
5996;BME280;3026;53.612;7.278;2022-08-19T00:14:28;101281.97;;;15.36;100.00
5996;BME280;3026;53.612;7.278;2022-08-19T00:16:57;101279.41;;;15.35;100.00
5996;BME280;3026;53.612;7.278;2022-08-19T00:19:24;101279.81;;;15.32;100.00
5996;BME280;3026;53.612;7.278;2022-08-19T00:21:52;101274.69;;;15.29;100.00
5996;BME280;3026;53.612;7.278;2022-08-19T00:24:20;101267.03;;;15.24;100.00
5996;BME280;3026;53.612;7.278;2022-08-19T00:26:48;101266.16;;;15.24;100.00
5996;BME280;3026;53.612;7.278;2022-08-19T00:29:17;101269.13;;;15.22;100.00
5996;BME280;3026;53.612;7.278;2022-08-19T00:31:45;101271.78;;;15.15;100.00
5996;BME280;3026;53.612;7.278;2022-08-19T00:34:12;101276.59;;;15.13;100.00
5996;BME280;3026;53.612;7.278;2022-08-19T00:36:40;101275.56;;;15.14;100.00
5996;BME280;3026;53.612;7.278;2022-08-19T00:39:09;101262.22;;;15.11;100.00
5996;BME280;3026;53.612;7.278;2022-08-19T00:41:37;101265.16;;;15.10;100.00
5996;BME280;3026;53.612;7.278;2022-08-19T00:44:08;101260.06;;;15.07;100.00
5996;BME280;3026;53.612;7.278;2022-08-19T00:46:37;101255.78;;;15.04;100.00
5996;BME280;3026;53.612;7.278;2022-08-19T00:49:09;101245.19;;;15.01;100.00
5996;BME280;3026;53.612;7.278;2022-08-19T00:51:40;101250.28;;;15.04;100.00
5996;BME280;3026;53.612;7.278;2022-08-19T00:54:10;101258.53;;;15.04;100.00
5996;BME280;3026;53.612;7.278;2022-08-19T00:56:38;101246.22;;;15.00;100.00
5996;BME280;3026;53.612;7.278;2022-08-19T00:59:05;101250.22;;;14.98;100.00
5996;BME280;3026;53.612;7.278;2022-08-19T01:01:35;101248.03;;;14.93;100.00
5996;BME280;3026;53.612;7.278;2022-08-19T01:04:02;101241.22;;;14.89;100.00
5996;BME280;3026;53.612;7.278;2022-08-19T01:06:30;101245.03;;;14.88;100.00
5996;BME280;3026;53.612;7.278;2022-08-19T01:08:58;101245.03;;;14.88;100.00
5996;BME280;3026;53.612;7.278;2022-08-19T01:11:27;101243.72;;;14.84;100.00
5996;BME280;3026;53.612;7.278;2022-08-19T01:13:55;101236.53;;;14.83;100.00
5996;BME280;3026;53.612;7.278;2022-08-19T01:16:25;101238.56;;;14.81;100.00
5996;BME280;3026;53.612;7.278;2022-08-19T01:18:54;101242.38;;;14.80;100.00
5996;BME280;3026;53.612;7.278;2022-08-19T01:21:26;101247.84;;;14.80;100.00
5996;BME280;3026;53.612;7.278;2022-08-19T01:23:56;101252.31;;;14.81;100.00
5996;BME280;3026;53.612;7.278;2022-08-19T01:26:25;101244.06;;;14.81;100.00
5996;BME280;3026;53.612;7.278;2022-08-19T01:28:54;101240.00;;;14.77;100.00
5996;BME280;3026;53.612;7.278;2022-08-19T01:31:24;101245.22;;;14.72;100.00
5996;BME280;3026;53.612;7.278;2022-08-19T01:33:53;101247.28;;;14.70;100.00
5996;BME280;3026;53.612;7.278;2022-08-19T01:36:23;101243.88;;;14.68;100.00
5996;BME280;3026;53.612;7.278;2022-08-19T01:38:52;101247.69;;;14.67;100.00
5996;BME280;3026;53.612;7.278;2022-08-19T01:41:20;101239.84;;;14.64;100.00
5996;BME280;3026;53.612;7.278;2022-08-19T01:43:49;101241.72;;;14.63;100.00
5996;BME280;3026;53.612;7.278;2022-08-19T01:46:16;101251.84;;;14.63;100.00
5996;BME280;3026;53.612;7.278;2022-08-19T01:48:45;101249.50;;;14.59;100.00
5996;BME280;3026;53.612;7.278;2022-08-19T01:51:12;101243.31;;;14.57;100.00
5996;BME280;3026;53.612;7.278;2022-08-19T01:53:40;101245.41;;;14.55;100.00
5996;BME280;3026;53.612;7.278;2022-08-19T01:56:07;101237.81;;;14.57;100.00
5996;BME280;3026;53.612;7.278;2022-08-19T01:58:40;101232.53;;;14.56;100.00
5996;BME280;3026;53.612;7.278;2022-08-19T02:01:08;101235.28;;;14.56;100.00
5996;BME280;3026;53.612;7.278;2022-08-19T02:03:35;101239.06;;;14.55;100.00
5996;BME280;3026;53.612;7.278;2022-08-19T02:06:03;101241.16;;;14.53;100.00
5996;BME280;3026;53.612;7.278;2022-08-19T02:08:33;101232.25;;;14.51;100.00
5996;BME280;3026;53.612;7.278;2022-08-19T02:11:01;101236.25;;;14.48;100.00
5996;BME280;3026;53.612;7.278;2022-08-19T02:13:29;101234.69;;;14.46;100.00
5996;BME280;3026;53.612;7.278;2022-08-19T02:15:57;101221.53;;;14.41;100.00
5996;BME280;3026;53.612;7.278;2022-08-19T02:18:24;101232.50;;;14.41;100.00
5996;BME280;3026;53.612;7.278;2022-08-19T02:20:52;101225.22;;;14.34;100.00
5996;BME280;3026;53.612;7.278;2022-08-19T02:23:19;101249.69;;;14.35;100.00
5996;BME280;3026;53.612;7.278;2022-08-19T02:25:47;101240.81;;;14.33;100.00
5996;BME280;3026;53.612;7.278;2022-08-19T02:28:15;101238.72;;;14.35;100.00
5996;BME280;3026;53.612;7.278;2022-08-19T02:30:42;101238.72;;;14.35;100.00
5996;BME280;3026;53.612;7.278;2022-08-19T02:33:11;101245.94;;;14.36;100.00
5996;BME280;3026;53.612;7.278;2022-08-19T02:35:41;101247.84;;;14.36;100.00
5996;BME280;3026;53.612;7.278;2022-08-19T02:38:08;101242.72;;;14.32;100.00
5996;BME280;3026;53.612;7.278;2022-08-19T02:40:55;101243.75;;;14.31;100.00
5996;BME280;3026;53.612;7.278;2022-08-19T02:43:24;101241.56;;;14.27;100.00
5996;BME280;3026;53.612;7.278;2022-08-19T02:45:51;101240.72;;;14.26;100.00
5996;BME280;3026;53.612;7.278;2022-08-19T02:48:21;101252.94;;;14.24;100.00
5996;BME280;3026;53.612;7.278;2022-08-19T02:50:50;101257.72;;;14.22;100.00
5996;BME280;3026;53.612;7.278;2022-08-19T02:53:21;101261.03;;;14.17;100.00
5996;BME280;3026;53.612;7.278;2022-08-19T02:55:49;101265.47;;;14.18;100.00
5996;BME280;3026;53.612;7.278;2022-08-19T02:58:16;101264.63;;;14.18;100.00
5996;BME280;3026;53.612;7.278;2022-08-19T03:00:45;101256.59;;;14.16;100.00
5996;BME280;3026;53.612;7.278;2022-08-19T03:03:13;101259.53;;;14.15;100.00
5996;BME280;3026;53.612;7.278;2022-08-19T03:05:42;101248.91;;;14.12;100.00
5996;BME280;3026;53.612;7.278;2022-08-19T03:08:10;101254.38;;;14.12;100.00
5996;BME280;3026;53.612;7.278;2022-08-19T03:10:42;101253.06;;;14.08;100.00
5996;BME280;3026;53.612;7.278;2022-08-19T03:13:12;101247.97;;;14.05;100.00
5996;BME280;3026;53.612;7.278;2022-08-19T03:15:41;101244.56;;;14.02;100.00
5996;BME280;3026;53.612;7.278;2022-08-19T03:18:08;101250.38;;;13.99;100.00
5996;BME280;3026;53.612;7.278;2022-08-19T03:20:41;101252.09;;;14.00;100.00
5996;BME280;3026;53.612;7.278;2022-08-19T03:23:08;101244.06;;;13.99;100.00
5996;BME280;3026;53.612;7.278;2022-08-19T03:25:37;101243.59;;;13.95;100.00
5996;BME280;3026;53.612;7.278;2022-08-19T03:28:06;101241.88;;;13.94;100.00
5996;BME280;3026;53.612;7.278;2022-08-19T03:30:33;101232.16;;;13.92;100.00
5996;BME280;3026;53.612;7.278;2022-08-19T03:33:00;101236.78;;;13.91;100.00
5996;BME280;3026;53.612;7.278;2022-08-19T03:35:27;101227.91;;;13.89;100.00
5996;BME280;3026;53.612;7.278;2022-08-19T03:37:55;101228.25;;;13.86;100.00
5996;BME280;3026;53.612;7.278;2022-08-19T03:40:22;101224.84;;;13.84;100.00
5996;BME280;3026;53.612;7.278;2022-08-19T03:42:49;101232.78;;;13.79;100.00
5996;BME280;3026;53.612;7.278;2022-08-19T03:45:16;101235.19;;;13.74;100.00
5996;BME280;3026;53.612;7.278;2022-08-19T03:47:44;101238.97;;;13.73;100.00
5996;BME280;3026;53.612;7.278;2022-08-19T03:50:11;101241.53;;;13.75;100.00
5996;BME280;3026;53.612;7.278;2022-08-19T03:52:38;101248.25;;;13.72;100.00
5996;BME280;3026;53.612;7.278;2022-08-19T03:55:08;101252.00;;;13.71;100.00
5996;BME280;3026;53.612;7.278;2022-08-19T03:57:34;101257.50;;;13.71;100.00
5996;BME280;3026;53.612;7.278;2022-08-19T04:00:03;101246.75;;;14.22;100.00
5996;BME280;3026;53.612;7.278;2022-08-19T04:02:32;101238.47;;;13.92;100.00
5996;BME280;3026;53.612;7.278;2022-08-19T04:04:59;101241.94;;;13.86;100.00
5996;BME280;3026;53.612;7.278;2022-08-19T04:07:26;101243.34;;;13.82;100.00
5996;BME280;3026;53.612;7.278;2022-08-19T04:09:53;101247.50;;;13.78;100.00
5996;BME280;3026;53.612;7.278;2022-08-19T04:12:21;101245.13;;;13.75;100.00
5996;BME280;3026;53.612;7.278;2022-08-19T04:14:48;101231.78;;;13.72;100.00
5996;BME280;3026;53.612;7.278;2022-08-19T04:17:15;101238.97;;;13.73;100.00
5996;BME280;3026;53.612;7.278;2022-08-19T04:19:42;101240.00;;;13.72;100.00
5996;BME280;3026;53.612;7.278;2022-08-19T04:22:10;101238.31;;;13.71;100.00
5996;BME280;3026;53.612;7.278;2022-08-19T04:24:37;101233.88;;;13.70;100.00
5996;BME280;3026;53.612;7.278;2022-08-19T04:27:05;101231.50;;;13.67;100.00
5996;BME280;3026;53.612;7.278;2022-08-19T04:29:33;101232.50;;;13.66;100.00
5996;BME280;3026;53.612;7.278;2022-08-19T04:32:01;101225.34;;;13.65;100.00
5996;BME280;3026;53.612;7.278;2022-08-19T04:34:28;101222.44;;;13.66;100.00
5996;BME280;3026;53.612;7.278;2022-08-19T04:36:57;101228.75;;;13.67;100.00
5996;BME280;3026;53.612;7.278;2022-08-19T04:39:27;101225.34;;;13.65;100.00
5996;BME280;3026;53.612;7.278;2022-08-19T04:42:15;101220.22;;;13.62;100.00
5996;BME280;3026;53.612;7.278;2022-08-19T04:45:01;101224.00;;;13.61;100.00
5996;BME280;3026;53.612;7.278;2022-08-19T04:47:29;101225.03;;;13.60;100.00
5996;BME280;3026;53.612;7.278;2022-08-19T04:49:56;101215.13;;;13.59;100.00
5996;BME280;3026;53.612;7.278;2022-08-19T04:52:23;101219.94;;;13.57;100.00
5996;BME280;3026;53.612;7.278;2022-08-19T04:54:51;101213.41;;;13.58;100.00
5996;BME280;3026;53.612;7.278;2022-08-19T04:57:17;101219.75;;;13.58;100.00
5996;BME280;3026;53.612;7.278;2022-08-19T04:59:44;101219.75;;;13.58;100.00
5996;BME280;3026;53.612;7.278;2022-08-19T05:02:13;101211.34;;;13.60;100.00
5996;BME280;3026;53.612;7.278;2022-08-19T05:04:40;101213.03;;;13.61;100.00
5996;BME280;3026;53.612;7.278;2022-08-19T05:07:07;101207.38;;;13.62;100.00
5996;BME280;3026;53.612;7.278;2022-08-19T05:09:35;101218.16;;;13.64;100.00
5996;BME280;3026;53.612;7.278;2022-08-19T05:12:02;101211.47;;;13.66;100.00
5996;BME280;3026;53.612;7.278;2022-08-19T05:14:29;101202.69;;;13.71;100.00
5996;BME280;3026;53.612;7.278;2022-08-19T05:16:56;101207.59;;;13.76;100.00
5996;BME280;3026;53.612;7.278;2022-08-19T05:19:24;101207.06;;;13.80;100.00
5996;BME280;3026;53.612;7.278;2022-08-19T05:22:08;101201.22;;;13.83;100.00
5996;BME280;3026;53.612;7.278;2022-08-19T05:24:52;101210.75;;;13.87;100.00
5996;BME280;3026;53.612;7.278;2022-08-19T05:27:20;101201.81;;;13.93;100.00
5996;BME280;3026;53.612;7.278;2022-08-19T05:29:47;101211.66;;;14.02;100.00
5996;BME280;3026;53.612;7.278;2022-08-19T05:32:14;101213.94;;;14.14;100.00
5996;BME280;3026;53.612;7.278;2022-08-19T05:34:42;101215.19;;;14.26;100.00
5996;BME280;3026;53.612;7.278;2022-08-19T05:37:09;101214.34;;;14.40;100.00
5996;BME280;3026;53.612;7.278;2022-08-19T05:39:37;101217.56;;;14.58;100.00
5996;BME280;3026;53.612;7.278;2022-08-19T05:42:06;101216.75;;;14.73;100.00
5996;BME280;3026;53.612;7.278;2022-08-19T05:44:36;101219.47;;;14.87;100.00
5996;BME280;3026;53.612;7.278;2022-08-19T05:47:05;101206.75;;;15.01;100.00
5996;BME280;3026;53.612;7.278;2022-08-19T05:49:34;101202.09;;;15.16;100.00
5996;BME280;3026;53.612;7.278;2022-08-19T05:52:05;101202.44;;;15.28;100.00
5996;BME280;3026;53.612;7.278;2022-08-19T05:54:32;101190.72;;;15.41;100.00
5996;BME280;3026;53.612;7.278;2022-08-19T05:57:00;101192.94;;;15.52;100.00
5996;BME280;3026;53.612;7.278;2022-08-19T05:59:27;101189.69;;;15.63;100.00
5996;BME280;3026;53.612;7.278;2022-08-19T06:01:54;101184.31;;;15.77;100.00
5996;BME280;3026;53.612;7.278;2022-08-19T06:04:22;101199.22;;;15.89;100.00
5996;BME280;3026;53.612;7.278;2022-08-19T06:06:51;101195.94;;;16.00;100.00
5996;BME280;3026;53.612;7.278;2022-08-19T06:09:22;101185.44;;;16.10;100.00
5996;BME280;3026;53.612;7.278;2022-08-19T06:11:51;101181.47;;;16.19;100.00
5996;BME280;3026;53.612;7.278;2022-08-19T06:14:21;101185.53;;;16.30;100.00
5996;BME280;3026;53.612;7.278;2022-08-19T06:16:49;101179.69;;;16.40;100.00
5996;BME280;3026;53.612;7.278;2022-08-19T06:19:19;101180.19;;;16.50;100.00
5996;BME280;3026;53.612;7.278;2022-08-19T06:21:48;101175.16;;;16.60;100.00
5996;BME280;3026;53.612;7.278;2022-08-19T06:24:18;101160.00;;;16.71;100.00
5996;BME280;3026;53.612;7.278;2022-08-19T06:26:48;101166.81;;;16.81;100.00
5996;BME280;3026;53.612;7.278;2022-08-19T06:29:17;101161.78;;;16.91;100.00
5996;BME280;3026;53.612;7.278;2022-08-19T06:31:46;101168.38;;;17.04;100.00
5996;BME280;3026;53.612;7.278;2022-08-19T06:34:15;101172.22;;;17.16;100.00
5996;BME280;3026;53.612;7.278;2022-08-19T06:36:44;101172.69;;;17.26;100.00
5996;BME280;3026;53.612;7.278;2022-08-19T06:39:15;101179.66;;;17.35;100.00
5996;BME280;3026;53.612;7.278;2022-08-19T06:41:44;101176.31;;;17.46;100.00
5996;BME280;3026;53.612;7.278;2022-08-19T06:44:13;101180.56;;;17.56;100.00
5996;BME280;3026;53.612;7.278;2022-08-19T06:46:41;101162.75;;;17.65;100.00
5996;BME280;3026;53.612;7.278;2022-08-19T06:49:08;101175.94;;;17.76;100.00
5996;BME280;3026;53.612;7.278;2022-08-19T06:51:37;101171.06;;;17.85;100.00
5996;BME280;3026;53.612;7.278;2022-08-19T06:54:04;101178.91;;;17.94;100.00
5996;BME280;3026;53.612;7.278;2022-08-19T06:56:33;101182.09;;;18.04;100.00
5996;BME280;3026;53.612;7.278;2022-08-19T06:59:01;101189.31;;;18.12;100.00
5996;BME280;3026;53.612;7.278;2022-08-19T07:01:29;101185.91;;;18.23;100.00
5996;BME280;3026;53.612;7.278;2022-08-19T07:03:56;101180.16;;;18.31;100.00
5996;BME280;3026;53.612;7.278;2022-08-19T07:06:23;101179.28;;;18.44;100.00
5996;BME280;3026;53.612;7.278;2022-08-19T07:08:50;101180.53;;;18.55;100.00
5996;BME280;3026;53.612;7.278;2022-08-19T07:11:18;101182.88;;;18.64;100.00
5996;BME280;3026;53.612;7.278;2022-08-19T07:13:46;101193.25;;;18.76;100.00
5996;BME280;3026;53.612;7.278;2022-08-19T07:16:17;101193.19;;;18.89;100.00
5996;BME280;3026;53.612;7.278;2022-08-19T07:18:47;101195.03;;;19.02;100.00
5996;BME280;3026;53.612;7.278;2022-08-19T07:21:16;101197.34;;;19.11;100.00
5996;BME280;3026;53.612;7.278;2022-08-19T07:23:44;101196.84;;;19.21;100.00
5996;BME280;3026;53.612;7.278;2022-08-19T07:26:14;101201.88;;;19.31;100.00
5996;BME280;3026;53.612;7.278;2022-08-19T07:28:41;101194.59;;;19.43;100.00
5996;BME280;3026;53.612;7.278;2022-08-19T07:31:11;101197.72;;;19.53;100.00
5996;BME280;3026;53.612;7.278;2022-08-19T07:33:38;101199.19;;;19.62;100.00
5996;BME280;3026;53.612;7.278;2022-08-19T07:36:09;101195.22;;;19.76;100.00
5996;BME280;3026;53.612;7.278;2022-08-19T07:38:39;101194.69;;;19.93;100.00
5996;BME280;3026;53.612;7.278;2022-08-19T07:41:07;101193.72;;;20.05;100.00
5996;BME280;3026;53.612;7.278;2022-08-19T07:43:35;101205.53;;;20.19;100.00
5996;BME280;3026;53.612;7.278;2022-08-19T07:46:02;101202.00;;;20.30;100.00
5996;BME280;3026;53.612;7.278;2022-08-19T07:48:29;101206.97;;;20.47;100.00
5996;BME280;3026;53.612;7.278;2022-08-19T07:50:58;101201.75;;;20.57;100.00
5996;BME280;3026;53.612;7.278;2022-08-19T07:53:30;101214.38;;;20.71;100.00
5996;BME280;3026;53.612;7.278;2022-08-19T07:55:58;101212.63;;;20.77;100.00
5996;BME280;3026;53.612;7.278;2022-08-19T07:58:31;101215.94;;;20.85;100.00
5996;BME280;3026;53.612;7.278;2022-08-19T08:00:59;101228.69;;;21.05;100.00
5996;BME280;3026;53.612;7.278;2022-08-19T08:03:28;101240.09;;;21.33;100.00
5996;BME280;3026;53.612;7.278;2022-08-19T08:06:09;101235.28;;;21.40;100.00
5996;BME280;3026;53.612;7.278;2022-08-19T08:08:54;101241.53;;;21.54;100.00
5996;BME280;3026;53.612;7.278;2022-08-19T08:11:50;101247.72;;;21.68;100.00
5996;BME280;3026;53.612;7.278;2022-08-19T08:14:19;101247.84;;;21.73;100.00
5996;BME280;3026;53.612;7.278;2022-08-19T08:16:47;101247.03;;;21.84;100.00
5996;BME280;3026;53.612;7.278;2022-08-19T08:19:16;101254.81;;;22.05;100.00
5996;BME280;3026;53.612;7.278;2022-08-19T08:21:43;101255.59;;;22.12;100.00
5996;BME280;3026;53.612;7.278;2022-08-19T08:24:12;101257.41;;;22.30;100.00
5996;BME280;3026;53.612;7.278;2022-08-19T08:26:39;101260.69;;;22.39;100.00
5996;BME280;3026;53.612;7.278;2022-08-19T08:29:06;101259.72;;;22.45;100.00
5996;BME280;3026;53.612;7.278;2022-08-19T08:31:35;101263.13;;;22.47;100.00
5996;BME280;3026;53.612;7.278;2022-08-19T08:34:02;101270.81;;;22.45;100.00
5996;BME280;3026;53.612;7.278;2022-08-19T08:36:29;101271.66;;;22.46;100.00
5996;BME280;3026;53.612;7.278;2022-08-19T08:38:58;101272.91;;;22.50;100.00
5996;BME280;3026;53.612;7.278;2022-08-19T08:41:31;101285.09;;;22.60;100.00
5996;BME280;3026;53.612;7.278;2022-08-19T08:44:02;101280.50;;;22.66;100.00
5996;BME280;3026;53.612;7.278;2022-08-19T08:46:35;101284.25;;;22.71;100.00
5996;BME280;3026;53.612;7.278;2022-08-19T08:49:20;101274.47;;;22.81;100.00
5996;BME280;3026;53.612;7.278;2022-08-19T08:51:53;101273.59;;;22.92;100.00
5996;BME280;3026;53.612;7.278;2022-08-19T08:54:32;101269.59;;;23.11;100.00
5996;BME280;3026;53.612;7.278;2022-08-19T08:57:04;101285.16;;;23.24;100.00
5996;BME280;3026;53.612;7.278;2022-08-19T08:59:34;101287.22;;;23.28;100.00
5996;BME280;3026;53.612;7.278;2022-08-19T09:02:03;101282.84;;;23.33;100.00
5996;BME280;3026;53.612;7.278;2022-08-19T09:04:30;101275.50;;;23.55;100.00
5996;BME280;3026;53.612;7.278;2022-08-19T09:07:09;101284.69;;;23.67;100.00
5996;BME280;3026;53.612;7.278;2022-08-19T09:09:42;101288.06;;;23.69;100.00
5996;BME280;3026;53.612;7.278;2022-08-19T09:12:32;101297.72;;;23.78;100.00
5996;BME280;3026;53.612;7.278;2022-08-19T09:15:04;101293.84;;;23.79;100.00
5996;BME280;3026;53.612;7.278;2022-08-19T09:17:33;101291.63;;;23.81;100.00
5996;BME280;3026;53.612;7.278;2022-08-19T09:20:04;101296.69;;;23.84;100.00
5996;BME280;3026;53.612;7.278;2022-08-19T09:22:32;101298.44;;;24.19;100.00
5996;BME280;3026;53.612;7.278;2022-08-19T09:24:59;101304.16;;;24.41;100.00
5996;BME280;3026;53.612;7.278;2022-08-19T09:27:28;101300.34;;;24.64;100.00
5996;BME280;3026;53.612;7.278;2022-08-19T09:29:55;101302.69;;;24.72;100.00
5996;BME280;3026;53.612;7.278;2022-08-19T09:32:23;101298.44;;;24.86;100.00
5996;BME280;3026;53.612;7.278;2022-08-19T09:34:51;101300.78;;;25.11;100.00
5996;BME280;3026;53.612;7.278;2022-08-19T09:37:20;101298.34;;;25.15;100.00
5996;BME280;3026;53.612;7.278;2022-08-19T09:39:47;101308.91;;;25.13;100.00
5996;BME280;3026;53.612;7.278;2022-08-19T09:42:14;101316.81;;;25.21;100.00
5996;BME280;3026;53.612;7.278;2022-08-19T09:44:42;101309.28;;;25.43;100.00
5996;BME280;3026;53.612;7.278;2022-08-19T09:47:10;101305.41;;;25.44;100.00
5996;BME280;3026;53.612;7.278;2022-08-19T09:49:38;101308.97;;;25.62;100.00
5996;BME280;3026;53.612;7.278;2022-08-19T09:52:07;101313.59;;;25.73;100.00
5996;BME280;3026;53.612;7.278;2022-08-19T09:54:34;101316.16;;;25.57;100.00
5996;BME280;3026;53.612;7.278;2022-08-19T09:57:01;101314.88;;;25.43;100.00
5996;BME280;3026;53.612;7.278;2022-08-19T09:59:29;101313.97;;;25.59;100.00
5996;BME280;3026;53.612;7.278;2022-08-19T10:01:57;101308.75;;;25.90;100.00
5996;BME280;3026;53.612;7.278;2022-08-19T10:04:24;101313.84;;;26.25;100.00
5996;BME280;3026;53.612;7.278;2022-08-19T10:07:11;101307.13;;;26.26;100.00
5996;BME280;3026;53.612;7.278;2022-08-19T10:09:38;101310.97;;;26.42;100.00
5996;BME280;3026;53.612;7.278;2022-08-19T10:12:07;101308.38;;;26.67;100.00
5996;BME280;3026;53.612;7.278;2022-08-19T10:14:34;101308.81;;;26.54;100.00
5996;BME280;3026;53.612;7.278;2022-08-19T10:17:02;101300.47;;;26.59;100.00
5996;BME280;3026;53.612;7.278;2022-08-19T10:19:29;101305.66;;;26.83;100.00
5996;BME280;3026;53.612;7.278;2022-08-19T10:22:03;101293.91;;;26.86;100.00
5996;BME280;3026;53.612;7.278;2022-08-19T10:24:30;101305.81;;;27.03;100.00
5996;BME280;3026;53.612;7.278;2022-08-19T10:26:57;101302.88;;;27.30;100.00
5996;BME280;3026;53.612;7.278;2022-08-19T10:29:24;101305.44;;;27.37;100.00
5996;BME280;3026;53.612;7.278;2022-08-19T10:31:53;101303.69;;;27.25;100.00
5996;BME280;3026;53.612;7.278;2022-08-19T10:34:22;101296.81;;;27.01;100.00
5996;BME280;3026;53.612;7.278;2022-08-19T10:36:49;101290.03;;;26.87;100.00
5996;BME280;3026;53.612;7.278;2022-08-19T10:39:16;101292.84;;;26.87;100.00
5996;BME280;3026;53.612;7.278;2022-08-19T10:41:44;101288.91;;;26.88;100.00
5996;BME280;3026;53.612;7.278;2022-08-19T10:44:12;101293.16;;;26.95;100.00
5996;BME280;3026;53.612;7.278;2022-08-19T10:46:42;101290.03;;;26.87;100.00
5996;BME280;3026;53.612;7.278;2022-08-19T10:49:12;101284.94;;;27.21;100.00
5996;BME280;3026;53.612;7.278;2022-08-19T10:51:41;101294.28;;;27.47;100.00
5996;BME280;3026;53.612;7.278;2022-08-19T10:54:27;101283.47;;;27.71;100.00
5996;BME280;3026;53.612;7.278;2022-08-19T10:57:07;101289.41;;;28.10;100.00
5996;BME280;3026;53.612;7.278;2022-08-19T10:59:34;101275.97;;;28.17;100.00
5996;BME280;3026;53.612;7.278;2022-08-19T11:02:03;101284.66;;;28.26;100.00
5996;BME280;3026;53.612;7.278;2022-08-19T11:04:30;101287.50;;;28.41;100.00
5996;BME280;3026;53.612;7.278;2022-08-19T11:07:00;101291.13;;;28.46;100.00
5996;BME280;3026;53.612;7.278;2022-08-19T11:09:27;101289.97;;;28.58;100.00
5996;BME280;3026;53.612;7.278;2022-08-19T11:11:54;101300.66;;;28.35;98.56
5996;BME280;3026;53.612;7.278;2022-08-19T11:14:22;101295.00;;;28.05;100.00
5996;BME280;3026;53.612;7.278;2022-08-19T11:16:50;101297.22;;;27.82;100.00
5996;BME280;3026;53.612;7.278;2022-08-19T11:19:17;101296.63;;;27.75;100.00
5996;BME280;3026;53.612;7.278;2022-08-19T11:21:47;101297.78;;;27.79;100.00
5996;BME280;3026;53.612;7.278;2022-08-19T11:24:17;101289.63;;;27.78;100.00
5996;BME280;3026;53.612;7.278;2022-08-19T11:26:46;101295.53;;;27.81;100.00
5996;BME280;3026;53.612;7.278;2022-08-19T11:29:15;101287.69;;;27.83;100.00
5996;BME280;3026;53.612;7.278;2022-08-19T11:31:46;101291.63;;;27.93;100.00
5996;BME280;3026;53.612;7.278;2022-08-19T11:34:16;101288.81;;;27.87;100.00
5996;BME280;3026;53.612;7.278;2022-08-19T11:36:45;101283.22;;;28.13;100.00
5996;BME280;3026;53.612;7.278;2022-08-19T11:39:16;101288.00;;;28.07;100.00
5996;BME280;3026;53.612;7.278;2022-08-19T11:41:44;101288.28;;;27.96;100.00
5996;BME280;3026;53.612;7.278;2022-08-19T11:44:11;101281.53;;;27.86;100.00
5996;BME280;3026;53.612;7.278;2022-08-19T11:46:41;101271.16;;;27.87;100.00
5996;BME280;3026;53.612;7.278;2022-08-19T11:49:11;101277.56;;;27.77;100.00
5996;BME280;3026;53.612;7.278;2022-08-19T11:51:39;101278.41;;;27.68;100.00
5996;BME280;3026;53.612;7.278;2022-08-19T11:54:07;101285.34;;;27.60;100.00
5996;BME280;3026;53.612;7.278;2022-08-19T11:56:37;101278.03;;;27.54;100.00
5996;BME280;3026;53.612;7.278;2022-08-19T11:59:04;101283.06;;;27.52;99.50
5996;BME280;3026;53.612;7.278;2022-08-19T12:01:33;101280.00;;;27.48;100.00
5996;BME280;3026;53.612;7.278;2022-08-19T12:04:00;101271.31;;;27.45;100.00
5996;BME280;3026;53.612;7.278;2022-08-19T12:06:31;101281.97;;;27.53;100.00
5996;BME280;3026;53.612;7.278;2022-08-19T12:09:03;101278.69;;;27.71;100.00
5996;BME280;3026;53.612;7.278;2022-08-19T12:11:31;101277.56;;;27.77;100.00
5996;BME280;3026;53.612;7.278;2022-08-19T12:14:00;101279.25;;;27.68;100.00
5996;BME280;3026;53.612;7.278;2022-08-19T12:16:28;101275.88;;;27.71;100.00
5996;BME280;3026;53.612;7.278;2022-08-19T12:18:56;101281.22;;;27.73;100.00
5996;BME280;3026;53.612;7.278;2022-08-19T12:21:26;101281.50;;;27.76;100.00
5996;BME280;3026;53.612;7.278;2022-08-19T12:23:54;101278.72;;;27.86;100.00
5996;BME280;3026;53.612;7.278;2022-08-19T12:26:22;101284.31;;;27.86;100.00
5996;BME280;3026;53.612;7.278;2022-08-19T12:28:50;101287.09;;;27.76;100.00
5996;BME280;3026;53.612;7.278;2022-08-19T12:31:18;101281.78;;;27.75;100.00
5996;BME280;3026;53.612;7.278;2022-08-19T12:33:46;101286.28;;;27.86;100.00
5996;BME280;3026;53.612;7.278;2022-08-19T12:36:15;101275.94;;;27.92;100.00
5996;BME280;3026;53.612;7.278;2022-08-19T12:38:43;101277.91;;;27.91;100.00
5996;BME280;3026;53.612;7.278;2022-08-19T12:41:12;101284.59;;;27.85;100.00
5996;BME280;3026;53.612;7.278;2022-08-19T12:43:39;101272.53;;;27.74;100.00
5996;BME280;3026;53.612;7.278;2022-08-19T12:46:07;101269.16;;;27.72;100.00
5996;BME280;3026;53.612;7.278;2022-08-19T12:48:36;101270.84;;;27.68;100.00
5996;BME280;3026;53.612;7.278;2022-08-19T12:51:07;101266.38;;;27.87;100.00
5996;BME280;3026;53.612;7.278;2022-08-19T12:53:34;101265.28;;;27.83;100.00
5996;BME280;3026;53.612;7.278;2022-08-19T12:56:02;101260.22;;;27.80;100.00
5996;BME280;3026;53.612;7.278;2022-08-19T12:58:30;101268.63;;;27.85;100.00
5996;BME280;3026;53.612;7.278;2022-08-19T13:01:00;101272.53;;;27.74;100.00
5996;BME280;3026;53.612;7.278;2022-08-19T13:03:32;101259.31;;;27.59;100.00
5996;BME280;3026;53.612;7.278;2022-08-19T13:06:00;101262.91;;;27.55;100.00
5996;BME280;3026;53.612;7.278;2022-08-19T13:08:27;101263.56;;;27.67;100.00
5996;BME280;3026;53.612;7.278;2022-08-19T13:10:54;101257.97;;;27.82;100.00